Watertown Regional Airport
KATY : now visible

Airfield :











YOU CAN JOIN US ON...

 
LOGIN :

Register | Disclaimer

   EN    FR    IT 

 









Legend :    VFR   Marginal VFR   IFR   Intensive IFR   Very Intensive IFR
Visi :
Ceiling :
>= 8 km
>= 3000ft
5 to 8 km
1000 to 3000 ft
1500m to 5 km
500 to 1000 ft
800 to 1500m
200 to 500 ft
< 800m
< 200 ft
Symbols :   Thunderstorms  Fog  Heavy snow  Heavy precipitations  Wind > 20 kt






- Airport Elevation : 1749 ft
- IATA code : ATY


KATY - Watertown Regional

CURRENT METAR :
  • 261253Z AUTO 16005KT 10SM CLR M09/M11 A2986 RMK AO2 SLP140 I1003 T10941106

EXPIRED METARs :
  • 261233Z AUTO 17006KT 10SM SCT002 M09/M10 A2986 RMK AO2 I1003 T10941100
  • 261223Z AUTO 16005KT 9SM BKN002 M09/M10 A2986 RMK AO2 I1003 T10891100
  • 261215Z AUTO 17004KT 2SM BR OVC002 M09/M10 A2986 RMK AO2 I1003 T10891100
  • 261153Z AUTO 17006KT 3/4SM BR VV002 M08/M09 A2986 RMK AO2 SLP139 70001 I1005 I6016 T10831094 11044 21083 56005
  • 261053Z AUTO 18004KT 1/2SM FZFG VV002 M08/M09 A2987 RMK AO2 SLP142 I1003 T10781089

TAF KATY
Valid from the 26 at 12:00 until the 27 at 12:00 UTC


261125Z 2612/2712 VRB04KT 1/2SM FZFG VV002
TEMPO 2615/2616 2SM BR OVC003
FM261600 27006KT 4SM BR OVC015
FM262300 35007KT P6SM OVC003



MET'MAP, your aeronautical weather chart ! - Copyright ORBIFLY December 2007 - Disclaimer

ORBIFLY MET'MAP TEAM :

Programming & Development : Alexandra Zaïnal
Concept & original design : Baudouin d'Aumeries
Assistance for programming : Marc-Olivier Méhu
Technical & hardware support : Manuel Goepfert

Contact : metmap@orbifly.com




SOURCES & CREDITS :

   NOAA       Earth
Advisory